Accueil
METAR-TAF:

METAR-TAF

Aéroports :

Aéroport international de Bonriki

Tarawa, Kiribati

latitude: 01-21N, longitude: 172-55E, altitude: 2 m

Observation

Le bulletin a été fait il y a 27 minutes, à 23:00 UTC
Vent 5 kt de sud/sud-ouest
Température 31°C
Humidité 63%
Pression 1009 hPa
Visibilité 10 km ou plus
Quelques nuages à une hauteur de 2000 ft

METAR: NGTA 212300Z 21005KT 9999 FEW020 31/23 Q1009

Heure: 13:27 (23:27 UTC)

Prévision

Le bulletin a été fait il y a 6 heures et 13 minutes, à 17:14 UTC
Prévision valable du 21 à 18 UTC au 22 à 18 UTC
Vent 5 kt de est/nord-est
Visibilité 10 km ou plus
Quelques nuages à une hauteur de 2000 ft
Nuages épars à une hauteur de 30000 ft

TAF: NGTA 211714Z 2118/2218 07005KT 9999 FEW020 SCT300

Observations et prévisions météorologiques de plus de 4000 aéroports (messages METAR et TAF).

Les stations disponibles sont représentées par des disques jaunes et rouges sur la carte.

Passer la souris dessus pour voir le nom de la station.

Cliquer dessus pour voir les observations et prévisions météorologiques.

Pour changer de carte: cliquez sur les boutons verts avec une croix noire pour zoomer, sur le bouton vert avec un tiret pour effectuer un zoom arrière, ou sur les flèches vertes pour les cartes adjacentes.


METAR-TAF: